sensor_id;sensor_type;location;lat;lon;timestamp;temperature;humidity
29173;DHT22;16223;47.966;-1.616;2022-08-02T00:00:16;16.8;90
29173;DHT22;16223;47.966;-1.616;2022-08-02T00:01:16;16.8;90
29173;DHT22;16223;47.966;-1.616;2022-08-02T00:02:15;16.8;90
29173;DHT22;16223;47.966;-1.616;2022-08-02T00:03:16;16.8;90
29173;DHT22;16223;47.966;-1.616;2022-08-02T00:04:15;16.8;90
29173;DHT22;16223;47.966;-1.616;2022-08-02T00:05:15;16.8;90
29173;DHT22;16223;47.966;-1.616;2022-08-02T00:06:16;16.8;90
29173;DHT22;16223;47.966;-1.616;2022-08-02T00:07:17;16.8;90
29173;DHT22;16223;47.966;-1.616;2022-08-02T00:08:15;16.8;90
29173;DHT22;16223;47.966;-1.616;2022-08-02T00:09:16;16.8;90
29173;DHT22;16223;47.966;-1.616;2022-08-02T00:10:15;16.8;90
29173;DHT22;16223;47.966;-1.616;2022-08-02T00:11:15;16.8;90
29173;DHT22;16223;47.966;-1.616;2022-08-02T00:12:15;16.8;90
29173;DHT22;16223;47.966;-1.616;2022-08-02T00:13:16;16.8;90
29173;DHT22;16223;47.966;-1.616;2022-08-02T00:14:15;16.8;90
29173;DHT22;16223;47.966;-1.616;2022-08-02T00:15:16;16.8;90
29173;DHT22;16223;47.966;-1.616;2022-08-02T00:16:16;16.8;90
29173;DHT22;16223;47.966;-1.616;2022-08-02T00:17:16;16.8;90
29173;DHT22;16223;47.966;-1.616;2022-08-02T00:18:16;16.8;90
29173;DHT22;16223;47.966;-1.616;2022-08-02T00:19:17;16.8;90
29173;DHT22;16223;47.966;-1.616;2022-08-02T00:20:15;16.8;90
29173;DHT22;16223;47.966;-1.616;2022-08-02T00:21:16;16.8;90
29173;DHT22;16223;47.966;-1.616;2022-08-02T00:22:17;16.8;90
29173;DHT22;16223;47.966;-1.616;2022-08-02T00:23:18;16.8;90
29173;DHT22;16223;47.966;-1.616;2022-08-02T00:24:16;16.8;90
29173;DHT22;16223;47.966;-1.616;2022-08-02T00:25:16;16.8;90
29173;DHT22;16223;47.966;-1.616;2022-08-02T00:26:15;16.8;90
29173;DHT22;16223;47.966;-1.616;2022-08-02T00:27:16;16.8;90
29173;DHT22;16223;47.966;-1.616;2022-08-02T00:28:17;16.8;90
29173;DHT22;16223;47.966;-1.616;2022-08-02T00:29:16;16.8;90
29173;DHT22;16223;47.966;-1.616;2022-08-02T00:30:15;16.6;91
29173;DHT22;16223;47.966;-1.616;2022-08-02T00:31:15;16.6;91
29173;DHT22;16223;47.966;-1.616;2022-08-02T00:32:16;16.6;91
29173;DHT22;16223;47.966;-1.616;2022-08-02T00:33:16;16.6;91
29173;DHT22;16223;47.966;-1.616;2022-08-02T00:34:15;16.6;91
29173;DHT22;16223;47.966;-1.616;2022-08-02T00:35:16;16.6;91
29173;DHT22;16223;47.966;-1.616;2022-08-02T00:36:16;16.6;91
29173;DHT22;16223;47.966;-1.616;2022-08-02T00:37:15;16.6;91
29173;DHT22;16223;47.966;-1.616;2022-08-02T00:38:15;16.6;91
29173;DHT22;16223;47.966;-1.616;2022-08-02T00:39:15;16.6;91
29173;DHT22;16223;47.966;-1.616;2022-08-02T00:40:19;16.6;91
29173;DHT22;16223;47.966;-1.616;2022-08-02T00:41:18;16.6;91
29173;DHT22;16223;47.966;-1.616;2022-08-02T00:42:25;16.6;91
29173;DHT22;16223;47.966;-1.616;2022-08-02T00:43:16;16.6;91
29173;DHT22;16223;47.966;-1.616;2022-08-02T00:44:16;16.6;91
29173;DHT22;16223;47.966;-1.616;2022-08-02T00:45:15;16.6;91
29173;DHT22;16223;47.966;-1.616;2022-08-02T00:46:16;16.6;91
29173;DHT22;16223;47.966;-1.616;2022-08-02T00:47:16;16.6;91
29173;DHT22;16223;47.966;-1.616;2022-08-02T00:48:18;16.6;91
29173;DHT22;16223;47.966;-1.616;2022-08-02T00:49:16;16.6;91
29173;DHT22;16223;47.966;-1.616;2022-08-02T00:50:16;16.6;91
29173;DHT22;16223;47.966;-1.616;2022-08-02T00:51:15;16.6;91
29173;DHT22;16223;47.966;-1.616;2022-08-02T00:52:16;16.6;91
29173;DHT22;16223;47.966;-1.616;2022-08-02T00:53:15;16.6;91
29173;DHT22;16223;47.966;-1.616;2022-08-02T00:54:16;16.6;91
29173;DHT22;16223;47.966;-1.616;2022-08-02T00:55:15;16.6;91
29173;DHT22;16223;47.966;-1.616;2022-08-02T00:56:15;16.6;91
29173;DHT22;16223;47.966;-1.616;2022-08-02T00:57:15;16.6;91
29173;DHT22;16223;47.966;-1.616;2022-08-02T00:58:15;16.6;91
29173;DHT22;16223;47.966;-1.616;2022-08-02T00:59:15;16.6;91
29173;DHT22;16223;47.966;-1.616;2022-08-02T01:00:16;16.6;91
29173;DHT22;16223;47.966;-1.616;2022-08-02T01:01:16;16.6;91
29173;DHT22;16223;47.966;-1.616;2022-08-02T01:02:15;16.3;92
29173;DHT22;16223;47.966;-1.616;2022-08-02T01:03:16;16.3;92
29173;DHT22;16223;47.966;-1.616;2022-08-02T01:04:15;16.3;92
29173;DHT22;16223;47.966;-1.616;2022-08-02T01:05:16;16.3;92
29173;DHT22;16223;47.966;-1.616;2022-08-02T01:06:15;16.3;92
29173;DHT22;16223;47.966;-1.616;2022-08-02T01:07:16;16.3;92
29173;DHT22;16223;47.966;-1.616;2022-08-02T01:08:16;16.3;92
29173;DHT22;16223;47.966;-1.616;2022-08-02T01:09:16;16.3;92
29173;DHT22;16223;47.966;-1.616;2022-08-02T01:10:16;16.3;92
29173;DHT22;16223;47.966;-1.616;2022-08-02T01:11:16;16.3;92
29173;DHT22;16223;47.966;-1.616;2022-08-02T01:12:16;16.3;92
29173;DHT22;16223;47.966;-1.616;2022-08-02T01:13:15;16.3;92
29173;DHT22;16223;47.966;-1.616;2022-08-02T01:14:16;16.3;92
29173;DHT22;16223;47.966;-1.616;2022-08-02T01:15:16;16.3;92
29173;DHT22;16223;47.966;-1.616;2022-08-02T01:16:18;16.3;92
29173;DHT22;16223;47.966;-1.616;2022-08-02T01:17:19;16.3;92
29173;DHT22;16223;47.966;-1.616;2022-08-02T01:18:22;16.3;92
29173;DHT22;16223;47.966;-1.616;2022-08-02T01:19:29;16.3;92
29173;DHT22;16223;47.966;-1.616;2022-08-02T01:20:27;16.3;92
29173;DHT22;16223;47.966;-1.616;2022-08-02T01:21:31;16.3;92
29173;DHT22;16223;47.966;-1.616;2022-08-02T01:22:29;16.1;93
29173;DHT22;16223;47.966;-1.616;2022-08-02T01:23:26;16.1;93
29173;DHT22;16223;47.966;-1.616;2022-08-02T01:24:26;16.1;93
29173;DHT22;16223;47.966;-1.616;2022-08-02T01:25:26;16.1;93
29173;DHT22;16223;47.966;-1.616;2022-08-02T01:26:30;16.1;93
29173;DHT22;16223;47.966;-1.616;2022-08-02T01:27:28;16.1;93
29173;DHT22;16223;47.966;-1.616;2022-08-02T01:28:25;16.1;93
29173;DHT22;16223;47.966;-1.616;2022-08-02T01:29:20;16.1;93
29173;DHT22;16223;47.966;-1.616;2022-08-02T01:30:15;16.1;93
29173;DHT22;16223;47.966;-1.616;2022-08-02T01:31:23;16.1;93
29173;DHT22;16223;47.966;-1.616;2022-08-02T01:32:18;16.1;93
29173;DHT22;16223;47.966;-1.616;2022-08-02T01:33:18;16.1;93
29173;DHT22;16223;47.966;-1.616;2022-08-02T01:34:21;16.1;93
29173;DHT22;16223;47.966;-1.616;2022-08-02T01:35:19;16.1;93
29173;DHT22;16223;47.966;-1.616;2022-08-02T01:36:18;16.1;93
29173;DHT22;16223;47.966;-1.616;2022-08-02T01:37:18;16.1;93
29173;DHT22;16223;47.966;-1.616;2022-08-02T01:38:19;16.1;93
29173;DHT22;16223;47.966;-1.616;2022-08-02T01:39:18;16.1;93
29173;DHT22;16223;47.966;-1.616;2022-08-02T01:40:21;16.1;93
29173;DHT22;16223;47.966;-1.616;2022-08-02T01:41:21;16.1;93
29173;DHT22;16223;47.966;-1.616;2022-08-02T01:42:16;16.1;93
29173;DHT22;16223;47.966;-1.616;2022-08-02T01:43:16;16.1;93
29173;DHT22;16223;47.966;-1.616;2022-08-02T01:44:27;16.1;93
29173;DHT22;16223;47.966;-1.616;2022-08-02T01:45:16;16.1;93
29173;DHT22;16223;47.966;-1.616;2022-08-02T01:46:16;16.1;93
29173;DHT22;16223;47.966;-1.616;2022-08-02T01:47:19;16.1;93
29173;DHT22;16223;47.966;-1.616;2022-08-02T01:48:15;16.1;93
29173;DHT22;16223;47.966;-1.616;2022-08-02T01:49:19;16.1;93
29173;DHT22;16223;47.966;-1.616;2022-08-02T01:50:25;16.1;93
29173;DHT22;16223;47.966;-1.616;2022-08-02T01:51:17;16.1;93
29173;DHT22;16223;47.966;-1.616;2022-08-02T01:52:16;16.1;93
29173;DHT22;16223;47.966;-1.616;2022-08-02T01:53:17;16.1;93
29173;DHT22;16223;47.966;-1.616;2022-08-02T01:54:17;16.1;93
29173;DHT22;16223;47.966;-1.616;2022-08-02T01:55:18;16.1;93
29173;DHT22;16223;47.966;-1.616;2022-08-02T01:56:16;16.1;93
29173;DHT22;16223;47.966;-1.616;2022-08-02T01:57:16;16.1;93
29173;DHT22;16223;47.966;-1.616;2022-08-02T01:58:18;16.1;93
29173;DHT22;16223;47.966;-1.616;2022-08-02T01:59:19;16.1;93
29173;DHT22;16223;47.966;-1.616;2022-08-02T02:00:17;16.1;93
29173;DHT22;16223;47.966;-1.616;2022-08-02T02:01:16;16.1;93
29173;DHT22;16223;47.966;-1.616;2022-08-02T02:02:16;16.1;93
29173;DHT22;16223;47.966;-1.616;2022-08-02T02:03:18;16.1;93
29173;DHT22;16223;47.966;-1.616;2022-08-02T02:04:17;16.1;93
29173;DHT22;16223;47.966;-1.616;2022-08-02T02:05:19;16.1;93
29173;DHT22;16223;47.966;-1.616;2022-08-02T02:06:16;16.1;93
29173;DHT22;16223;47.966;-1.616;2022-08-02T02:07:17;16.1;93
29173;DHT22;16223;47.966;-1.616;2022-08-02T02:08:15;16.1;93
29173;DHT22;16223;47.966;-1.616;2022-08-02T02:09:16;16.1;93
29173;DHT22;16223;47.966;-1.616;2022-08-02T02:10:16;16.1;93
29173;DHT22;16223;47.966;-1.616;2022-08-02T02:11:15;16.1;93
29173;DHT22;16223;47.966;-1.616;2022-08-02T02:12:25;16.1;93
29173;DHT22;16223;47.966;-1.616;2022-08-02T02:13:17;15.9;94
29173;DHT22;16223;47.966;-1.616;2022-08-02T02:14:16;15.9;94
29173;DHT22;16223;47.966;-1.616;2022-08-02T02:15:15;15.9;94
29173;DHT22;16223;47.966;-1.616;2022-08-02T02:16:17;15.8;95
29173;DHT22;16223;47.966;-1.616;2022-08-02T02:17:16;15.8;95
29173;DHT22;16223;47.966;-1.616;2022-08-02T02:18:20;15.8;95
29173;DHT22;16223;47.966;-1.616;2022-08-02T02:19:17;15.8;95
29173;DHT22;16223;47.966;-1.616;2022-08-02T02:20:17;15.8;95
29173;DHT22;16223;47.966;-1.616;2022-08-02T02:21:15;15.8;95
29173;DHT22;16223;47.966;-1.616;2022-08-02T02:22:15;15.8;95
29173;DHT22;16223;47.966;-1.616;2022-08-02T02:23:15;15.8;95
29173;DHT22;16223;47.966;-1.616;2022-08-02T02:24:15;15.8;95
29173;DHT22;16223;47.966;-1.616;2022-08-02T02:25:17;15.8;95
29173;DHT22;16223;47.966;-1.616;2022-08-02T02:26:17;15.8;95
29173;DHT22;16223;47.966;-1.616;2022-08-02T02:27:16;15.8;95
29173;DHT22;16223;47.966;-1.616;2022-08-02T02:28:19;15.8;95
29173;DHT22;16223;47.966;-1.616;2022-08-02T02:29:16;15.8;95
29173;DHT22;16223;47.966;-1.616;2022-08-02T02:30:16;15.8;95
29173;DHT22;16223;47.966;-1.616;2022-08-02T02:31:18;15.8;95
29173;DHT22;16223;47.966;-1.616;2022-08-02T02:32:16;15.8;95
29173;DHT22;16223;47.966;-1.616;2022-08-02T02:33:19;15.8;95
29173;DHT22;16223;47.966;-1.616;2022-08-02T02:34:19;15.8;95
29173;DHT22;16223;47.966;-1.616;2022-08-02T02:35:17;15.8;95
29173;DHT22;16223;47.966;-1.616;2022-08-02T02:36:17;15.8;95
29173;DHT22;16223;47.966;-1.616;2022-08-02T02:37:19;15.8;95
29173;DHT22;16223;47.966;-1.616;2022-08-02T02:38:16;15.8;95
29173;DHT22;16223;47.966;-1.616;2022-08-02T02:39:17;15.8;95
29173;DHT22;16223;47.966;-1.616;2022-08-02T02:40:16;15.8;95
29173;DHT22;16223;47.966;-1.616;2022-08-02T02:41:16;15.8;95
29173;DHT22;16223;47.966;-1.616;2022-08-02T02:42:17;15.8;95
29173;DHT22;16223;47.966;-1.616;2022-08-02T02:43:16;15.8;95
29173;DHT22;16223;47.966;-1.616;2022-08-02T02:44:18;15.8;95
29173;DHT22;16223;47.966;-1.616;2022-08-02T02:45:16;15.8;95
29173;DHT22;16223;47.966;-1.616;2022-08-02T02:46:18;15.8;95
29173;DHT22;16223;47.966;-1.616;2022-08-02T02:47:16;15.8;95
29173;DHT22;16223;47.966;-1.616;2022-08-02T02:48:16;15.8;95
29173;DHT22;16223;47.966;-1.616;2022-08-02T02:49:17;15.8;95
29173;DHT22;16223;47.966;-1.616;2022-08-02T02:50:16;15.8;95
29173;DHT22;16223;47.966;-1.616;2022-08-02T02:51:15;15.8;95
29173;DHT22;16223;47.966;-1.616;2022-08-02T02:52:16;15.8;95
29173;DHT22;16223;47.966;-1.616;2022-08-02T02:53:18;15.8;95
29173;DHT22;16223;47.966;-1.616;2022-08-02T02:54:16;15.8;95
29173;DHT22;16223;47.966;-1.616;2022-08-02T02:55:16;15.8;95
29173;DHT22;16223;47.966;-1.616;2022-08-02T02:56:16;15.8;95
29173;DHT22;16223;47.966;-1.616;2022-08-02T02:57:15;15.8;95
29173;DHT22;16223;47.966;-1.616;2022-08-02T02:58:15;15.8;95
29173;DHT22;16223;47.966;-1.616;2022-08-02T02:59:16;15.8;95
29173;DHT22;16223;47.966;-1.616;2022-08-02T03:00:16;15.8;95
29173;DHT22;16223;47.966;-1.616;2022-08-02T03:01:15;15.8;95
29173;DHT22;16223;47.966;-1.616;2022-08-02T03:02:17;15.8;95
29173;DHT22;16223;47.966;-1.616;2022-08-02T03:03:16;15.8;95
29173;DHT22;16223;47.966;-1.616;2022-08-02T03:04:15;15.8;95
29173;DHT22;16223;47.966;-1.616;2022-08-02T03:05:16;15.5;96
29173;DHT22;16223;47.966;-1.616;2022-08-02T03:06:15;15.5;96
29173;DHT22;16223;47.966;-1.616;2022-08-02T03:07:15;15.5;96
29173;DHT22;16223;47.966;-1.616;2022-08-02T03:08:15;15.5;96
29173;DHT22;16223;47.966;-1.616;2022-08-02T03:09:16;15.5;96
29173;DHT22;16223;47.966;-1.616;2022-08-02T03:10:16;15.5;96
29173;DHT22;16223;47.966;-1.616;2022-08-02T03:11:16;15.5;96
29173;DHT22;16223;47.966;-1.616;2022-08-02T03:12:16;15.5;96
29173;DHT22;16223;47.966;-1.616;2022-08-02T03:13:16;15.5;96
29173;DHT22;16223;47.966;-1.616;2022-08-02T03:14:16;15.5;96
29173;DHT22;16223;47.966;-1.616;2022-08-02T03:15:15;15.5;96
29173;DHT22;16223;47.966;-1.616;2022-08-02T03:16:15;15.5;96
29173;DHT22;16223;47.966;-1.616;2022-08-02T03:17:15;15.5;96
29173;DHT22;16223;47.966;-1.616;2022-08-02T03:18:31;15.5;96
29173;DHT22;16223;47.966;-1.616;2022-08-02T03:19:15;15.5;96
29173;DHT22;16223;47.966;-1.616;2022-08-02T03:20:18;15.5;96
29173;DHT22;16223;47.966;-1.616;2022-08-02T03:21:25;15.5;96
29173;DHT22;16223;47.966;-1.616;2022-08-02T03:22:15;15.5;96
29173;DHT22;16223;47.966;-1.616;2022-08-02T03:23:15;15.3;96
29173;DHT22;16223;47.966;-1.616;2022-08-02T03:24:16;15.3;96
29173;DHT22;16223;47.966;-1.616;2022-08-02T03:25:16;15.3;96
29173;DHT22;16223;47.966;-1.616;2022-08-02T03:26:15;15.3;96
29173;DHT22;16223;47.966;-1.616;2022-08-02T03:27:15;15.3;96
29173;DHT22;16223;47.966;-1.616;2022-08-02T03:28:15;15.3;96
29173;DHT22;16223;47.966;-1.616;2022-08-02T03:29:15;15.3;96
29173;DHT22;16223;47.966;-1.616;2022-08-02T03:30:16;15.3;96
29173;DHT22;16223;47.966;-1.616;2022-08-02T03:31:15;15.3;96
29173;DHT22;16223;47.966;-1.616;2022-08-02T03:32:15;15.3;96
29173;DHT22;16223;47.966;-1.616;2022-08-02T03:33:15;15.3;96
29173;DHT22;16223;47.966;-1.616;2022-08-02T03:34:15;15.3;96
29173;DHT22;16223;47.966;-1.616;2022-08-02T03:35:16;15.3;96
29173;DHT22;16223;47.966;-1.616;2022-08-02T03:36:17;15.3;96
29173;DHT22;16223;47.966;-1.616;2022-08-02T03:37:16;15.3;96
29173;DHT22;16223;47.966;-1.616;2022-08-02T03:38:17;15.3;96
29173;DHT22;16223;47.966;-1.616;2022-08-02T03:39:15;15.3;96
29173;DHT22;16223;47.966;-1.616;2022-08-02T03:40:15;15.3;96
29173;DHT22;16223;47.966;-1.616;2022-08-02T03:41:17;15.3;96
29173;DHT22;16223;47.966;-1.616;2022-08-02T03:42:16;15.3;96
29173;DHT22;16223;47.966;-1.616;2022-08-02T03:43:16;15.3;96
29173;DHT22;16223;47.966;-1.616;2022-08-02T03:44:15;15.3;96
29173;DHT22;16223;47.966;-1.616;2022-08-02T03:45:15;15.3;96
29173;DHT22;16223;47.966;-1.616;2022-08-02T03:46:18;15.3;96
29173;DHT22;16223;47.966;-1.616;2022-08-02T03:47:16;15.3;96
29173;DHT22;16223;47.966;-1.616;2022-08-02T03:48:16;15.3;96
29173;DHT22;16223;47.966;-1.616;2022-08-02T03:49:18;15.3;96
29173;DHT22;16223;47.966;-1.616;2022-08-02T03:50:16;15.3;96
29173;DHT22;16223;47.966;-1.616;2022-08-02T03:51:16;15.3;96
29173;DHT22;16223;47.966;-1.616;2022-08-02T03:52:16;15.3;96
29173;DHT22;16223;47.966;-1.616;2022-08-02T03:53:16;15.3;96
29173;DHT22;16223;47.966;-1.616;2022-08-02T03:54:16;15.3;96
29173;DHT22;16223;47.966;-1.616;2022-08-02T03:55:18;15.3;96
29173;DHT22;16223;47.966;-1.616;2022-08-02T03:56:16;15.3;96
29173;DHT22;16223;47.966;-1.616;2022-08-02T03:57:16;15.3;96
29173;DHT22;16223;47.966;-1.616;2022-08-02T03:58:18;15.3;96
29173;DHT22;16223;47.966;-1.616;2022-08-02T03:59:16;15.3;96
29173;DHT22;16223;47.966;-1.616;2022-08-02T04:00:19;15.2;97
29173;DHT22;16223;47.966;-1.616;2022-08-02T04:01:16;15.2;97
29173;DHT22;16223;47.966;-1.616;2022-08-02T04:02:15;15.2;97
29173;DHT22;16223;47.966;-1.616;2022-08-02T04:03:16;15.2;97
29173;DHT22;16223;47.966;-1.616;2022-08-02T04:04:15;15.2;97
29173;DHT22;16223;47.966;-1.616;2022-08-02T04:05:15;15.2;97
29173;DHT22;16223;47.966;-1.616;2022-08-02T04:06:15;15.2;97
29173;DHT22;16223;47.966;-1.616;2022-08-02T04:07:15;15.2;97
29173;DHT22;16223;47.966;-1.616;2022-08-02T04:08:15;15.2;97
29173;DHT22;16223;47.966;-1.616;2022-08-02T04:09:15;15.2;97
29173;DHT22;16223;47.966;-1.616;2022-08-02T04:10:15;15.2;97
29173;DHT22;16223;47.966;-1.616;2022-08-02T04:11:15;15.2;97
29173;DHT22;16223;47.966;-1.616;2022-08-02T04:12:15;15.2;97
29173;DHT22;16223;47.966;-1.616;2022-08-02T04:13:15;15.2;97
29173;DHT22;16223;47.966;-1.616;2022-08-02T04:14:15;15.2;97
29173;DHT22;16223;47.966;-1.616;2022-08-02T04:15:16;15.2;97
29173;DHT22;16223;47.966;-1.616;2022-08-02T04:16:19;15.2;97
29173;DHT22;16223;47.966;-1.616;2022-08-02T04:17:16;15.2;97
29173;DHT22;16223;47.966;-1.616;2022-08-02T04:18:16;15.2;97
29173;DHT22;16223;47.966;-1.616;2022-08-02T04:19:19;15.2;97
29173;DHT22;16223;47.966;-1.616;2022-08-02T04:20:20;15.2;97
29173;DHT22;16223;47.966;-1.616;2022-08-02T04:21:17;15.2;97
29173;DHT22;16223;47.966;-1.616;2022-08-02T04:22:18;15.2;97
29173;DHT22;16223;47.966;-1.616;2022-08-02T04:23:17;15.2;97
29173;DHT22;16223;47.966;-1.616;2022-08-02T04:24:16;15.2;97
29173;DHT22;16223;47.966;-1.616;2022-08-02T04:25:16;15.2;97
29173;DHT22;16223;47.966;-1.616;2022-08-02T04:26:16;15.2;97
29173;DHT22;16223;47.966;-1.616;2022-08-02T04:27:16;15.2;97
29173;DHT22;16223;47.966;-1.616;2022-08-02T04:28:17;15.2;97
29173;DHT22;16223;47.966;-1.616;2022-08-02T04:29:15;15.2;97
29173;DHT22;16223;47.966;-1.616;2022-08-02T04:30:17;15.2;97
29173;DHT22;16223;47.966;-1.616;2022-08-02T04:31:16;15.2;97
29173;DHT22;16223;47.966;-1.616;2022-08-02T04:32:16;15.2;97
29173;DHT22;16223;47.966;-1.616;2022-08-02T04:33:16;15.2;97
29173;DHT22;16223;47.966;-1.616;2022-08-02T04:34:15;15.2;97
29173;DHT22;16223;47.966;-1.616;2022-08-02T04:35:17;15.2;97
29173;DHT22;16223;47.966;-1.616;2022-08-02T04:36:15;15.2;97
29173;DHT22;16223;47.966;-1.616;2022-08-02T04:37:15;15.2;97
29173;DHT22;16223;47.966;-1.616;2022-08-02T04:38:15;15.2;97
29173;DHT22;16223;47.966;-1.616;2022-08-02T04:39:15;15.2;97
29173;DHT22;16223;47.966;-1.616;2022-08-02T04:40:15;15.2;97
29173;DHT22;16223;47.966;-1.616;2022-08-02T04:41:15;15.2;97
29173;DHT22;16223;47.966;-1.616;2022-08-02T04:42:22;15.2;97
29173;DHT22;16223;47.966;-1.616;2022-08-02T04:43:15;15.2;97
29173;DHT22;16223;47.966;-1.616;2022-08-02T04:44:15;15.2;97
29173;DHT22;16223;47.966;-1.616;2022-08-02T04:45:16;14.8;98
29173;DHT22;16223;47.966;-1.616;2022-08-02T04:46:15;14.8;98
29173;DHT22;16223;47.966;-1.616;2022-08-02T04:47:15;14.8;98
29173;DHT22;16223;47.966;-1.616;2022-08-02T04:48:15;14.8;98
29173;DHT22;16223;47.966;-1.616;2022-08-02T04:49:15;14.8;98
29173;DHT22;16223;47.966;-1.616;2022-08-02T04:50:15;14.8;98
29173;DHT22;16223;47.966;-1.616;2022-08-02T04:51:16;14.8;98
29173;DHT22;16223;47.966;-1.616;2022-08-02T04:52:16;14.8;98
29173;DHT22;16223;47.966;-1.616;2022-08-02T04:53:16;14.8;98
29173;DHT22;16223;47.966;-1.616;2022-08-02T04:54:15;14.8;98
29173;DHT22;16223;47.966;-1.616;2022-08-02T04:55:15;14.8;98
29173;DHT22;16223;47.966;-1.616;2022-08-02T04:56:15;14.8;98
29173;DHT22;16223;47.966;-1.616;2022-08-02T04:57:15;14.8;98
29173;DHT22;16223;47.966;-1.616;2022-08-02T04:58:15;14.8;98
29173;DHT22;16223;47.966;-1.616;2022-08-02T04:59:15;14.8;98
29173;DHT22;16223;47.966;-1.616;2022-08-02T05:00:16;14.8;98
29173;DHT22;16223;47.966;-1.616;2022-08-02T05:01:15;14.8;98
29173;DHT22;16223;47.966;-1.616;2022-08-02T05:02:15;14.8;98
29173;DHT22;16223;47.966;-1.616;2022-08-02T05:03:15;14.8;98
29173;DHT22;16223;47.966;-1.616;2022-08-02T05:04:15;14.8;98
29173;DHT22;16223;47.966;-1.616;2022-08-02T05:05:16;14.8;98
29173;DHT22;16223;47.966;-1.616;2022-08-02T05:06:14;14.8;98
29173;DHT22;16223;47.966;-1.616;2022-08-02T05:07:15;14.8;98
29173;DHT22;16223;47.966;-1.616;2022-08-02T05:08:15;14.8;98
29173;DHT22;16223;47.966;-1.616;2022-08-02T05:09:15;14.8;98
29173;DHT22;16223;47.966;-1.616;2022-08-02T05:10:15;14.8;98
29173;DHT22;16223;47.966;-1.616;2022-08-02T05:11:15;14.8;98
29173;DHT22;16223;47.966;-1.616;2022-08-02T05:12:15;14.8;98
29173;DHT22;16223;47.966;-1.616;2022-08-02T05:13:15;14.8;98
29173;DHT22;16223;47.966;-1.616;2022-08-02T05:14:15;14.8;98
29173;DHT22;16223;47.966;-1.616;2022-08-02T05:15:16;14.8;98
29173;DHT22;16223;47.966;-1.616;2022-08-02T05:16:16;14.8;98
29173;DHT22;16223;47.966;-1.616;2022-08-02T05:17:16;14.8;98
29173;DHT22;16223;47.966;-1.616;2022-08-02T05:18:15;14.8;98
29173;DHT22;16223;47.966;-1.616;2022-08-02T05:19:15;14.8;98
29173;DHT22;16223;47.966;-1.616;2022-08-02T05:20:16;14.8;98
29173;DHT22;16223;47.966;-1.616;2022-08-02T05:21:16;14.8;98
29173;DHT22;16223;47.966;-1.616;2022-08-02T05:22:16;14.8;98
29173;DHT22;16223;47.966;-1.616;2022-08-02T05:23:15;14.8;98
29173;DHT22;16223;47.966;-1.616;2022-08-02T05:24:15;14.8;98
29173;DHT22;16223;47.966;-1.616;2022-08-02T05:25:16;14.8;98
29173;DHT22;16223;47.966;-1.616;2022-08-02T05:26:15;14.8;98
29173;DHT22;16223;47.966;-1.616;2022-08-02T05:27:15;14.8;98
29173;DHT22;16223;47.966;-1.616;2022-08-02T05:28:16;14.8;98
29173;DHT22;16223;47.966;-1.616;2022-08-02T05:29:16;14.8;98
29173;DHT22;16223;47.966;-1.616;2022-08-02T05:30:15;14.8;98
29173;DHT22;16223;47.966;-1.616;2022-08-02T05:31:15;15.3;98
29173;DHT22;16223;47.966;-1.616;2022-08-02T05:32:16;15.3;98
29173;DHT22;16223;47.966;-1.616;2022-08-02T05:33:16;15.3;98
29173;DHT22;16223;47.966;-1.616;2022-08-02T05:34:15;15.3;98
29173;DHT22;16223;47.966;-1.616;2022-08-02T05:35:19;15.3;98
29173;DHT22;16223;47.966;-1.616;2022-08-02T05:36:15;15.3;98
29173;DHT22;16223;47.966;-1.616;2022-08-02T05:37:15;15.3;98
29173;DHT22;16223;47.966;-1.616;2022-08-02T05:38:14;15.3;98
29173;DHT22;16223;47.966;-1.616;2022-08-02T05:39:15;15.3;98
29173;DHT22;16223;47.966;-1.616;2022-08-02T05:40:16;15.3;98
29173;DHT22;16223;47.966;-1.616;2022-08-02T05:41:15;15.3;98
29173;DHT22;16223;47.966;-1.616;2022-08-02T05:42:15;15.3;98
29173;DHT22;16223;47.966;-1.616;2022-08-02T05:43:16;15.3;98
29173;DHT22;16223;47.966;-1.616;2022-08-02T05:44:15;15.3;98
29173;DHT22;16223;47.966;-1.616;2022-08-02T05:45:16;15.3;98
29173;DHT22;16223;47.966;-1.616;2022-08-02T05:46:16;15.3;98
29173;DHT22;16223;47.966;-1.616;2022-08-02T05:47:15;15.3;98
29173;DHT22;16223;47.966;-1.616;2022-08-02T05:48:15;15.3;98
29173;DHT22;16223;47.966;-1.616;2022-08-02T05:49:15;15.3;98
29173;DHT22;16223;47.966;-1.616;2022-08-02T05:50:15;15.3;98
29173;DHT22;16223;47.966;-1.616;2022-08-02T05:51:21;15.7;98
29173;DHT22;16223;47.966;-1.616;2022-08-02T05:52:18;15.7;98
29173;DHT22;16223;47.966;-1.616;2022-08-02T05:53:23;15.7;98
29173;DHT22;16223;47.966;-1.616;2022-08-02T05:54:22;15.7;98
29173;DHT22;16223;47.966;-1.616;2022-08-02T05:55:21;15.7;98
29173;DHT22;16223;47.966;-1.616;2022-08-02T05:56:19;15.8;98
29173;DHT22;16223;47.966;-1.616;2022-08-02T05:57:24;15.8;98
29173;DHT22;16223;47.966;-1.616;2022-08-02T05:58:23;15.8;98
29173;DHT22;16223;47.966;-1.616;2022-08-02T05:59:22;15.8;98
29173;DHT22;16223;47.966;-1.616;2022-08-02T06:00:16;15.8;98
29173;DHT22;16223;47.966;-1.616;2022-08-02T06:01:21;15.8;98
29173;DHT22;16223;47.966;-1.616;2022-08-02T06:02:25;15.8;98
29173;DHT22;16223;47.966;-1.616;2022-08-02T06:03:20;15.8;98
29173;DHT22;16223;47.966;-1.616;2022-08-02T06:04:23;15.8;98
29173;DHT22;16223;47.966;-1.616;2022-08-02T06:05:18;15.8;98
29173;DHT22;16223;47.966;-1.616;2022-08-02T06:06:17;15.8;98
29173;DHT22;16223;47.966;-1.616;2022-08-02T06:07:15;15.8;98
29173;DHT22;16223;47.966;-1.616;2022-08-02T06:08:15;15.8;98
29173;DHT22;16223;47.966;-1.616;2022-08-02T06:09:16;15.8;98
29173;DHT22;16223;47.966;-1.616;2022-08-02T06:10:18;15.8;98
29173;DHT22;16223;47.966;-1.616;2022-08-02T06:11:19;15.8;98
29173;DHT22;16223;47.966;-1.616;2022-08-02T06:12:18;15.8;98
29173;DHT22;16223;47.966;-1.616;2022-08-02T06:13:16;15.8;98
29173;DHT22;16223;47.966;-1.616;2022-08-02T06:14:15;15.8;98
29173;DHT22;16223;47.966;-1.616;2022-08-02T06:15:16;15.8;98
29173;DHT22;16223;47.966;-1.616;2022-08-02T06:16:15;15.8;98
29173;DHT22;16223;47.966;-1.616;2022-08-02T06:17:16;15.8;98
29173;DHT22;16223;47.966;-1.616;2022-08-02T06:18:17;15.8;98
29173;DHT22;16223;47.966;-1.616;2022-08-02T06:19:16;15.8;98
29173;DHT22;16223;47.966;-1.616;2022-08-02T06:20:16;15.8;98
29173;DHT22;16223;47.966;-1.616;2022-08-02T06:21:15;15.8;98
29173;DHT22;16223;47.966;-1.616;2022-08-02T06:22:16;15.8;98
29173;DHT22;16223;47.966;-1.616;2022-08-02T06:23:15;15.8;98
29173;DHT22;16223;47.966;-1.616;2022-08-02T06:24:18;15.8;98
29173;DHT22;16223;47.966;-1.616;2022-08-02T06:25:16;16.3;97
29173;DHT22;16223;47.966;-1.616;2022-08-02T06:26:16;16.3;97
29173;DHT22;16223;47.966;-1.616;2022-08-02T06:27:16;16.3;97
29173;DHT22;16223;47.966;-1.616;2022-08-02T06:28:15;16.3;97
29173;DHT22;16223;47.966;-1.616;2022-08-02T06:29:16;16.3;97
29173;DHT22;16223;47.966;-1.616;2022-08-02T06:30:15;16.3;97
29173;DHT22;16223;47.966;-1.616;2022-08-02T06:31:16;16.3;97
29173;DHT22;16223;47.966;-1.616;2022-08-02T06:32:18;16.3;97
29173;DHT22;16223;47.966;-1.616;2022-08-02T06:33:15;16.8;96
29173;DHT22;16223;47.966;-1.616;2022-08-02T06:34:15;16.8;96
29173;DHT22;16223;47.966;-1.616;2022-08-02T06:35:15;16.8;96
29173;DHT22;16223;47.966;-1.616;2022-08-02T06:36:20;16.8;96
29173;DHT22;16223;47.966;-1.616;2022-08-02T06:37:20;16.8;96